sensor_id;sensor_type;location;lat;lon;timestamp;pressure;altitude;pressure_sealevel;temperature;humidity
71774;BME280;59607;52.130;5.430;2024-01-07T00:00:03;101927.13;;;1.26;100.00
71774;BME280;59607;52.130;5.430;2024-01-07T00:02:30;101927.03;;;1.27;100.00
71774;BME280;59607;52.130;5.430;2024-01-07T00:05:02;101927.19;;;1.24;100.00
71774;BME280;59607;52.130;5.430;2024-01-07T00:07:29;101934.03;;;1.25;100.00
71774;BME280;59607;52.130;5.430;2024-01-07T00:10:03;101939.88;;;1.29;100.00
71774;BME280;59607;52.130;5.430;2024-01-07T00:12:30;101940.81;;;1.28;100.00
71774;BME280;59607;52.130;5.430;2024-01-07T00:14:57;101941.56;;;1.30;100.00
71774;BME280;59607;52.130;5.430;2024-01-07T00:17:29;101942.63;;;1.26;100.00
71774;BME280;59607;52.130;5.430;2024-01-07T00:19:55;101948.72;;;1.25;100.00
71774;BME280;59607;52.130;5.430;2024-01-07T00:22:32;101951.28;;;1.25;100.00
71774;BME280;59607;52.130;5.430;2024-01-07T00:24:58;101951.59;;;1.18;100.00
71774;BME280;59607;52.130;5.430;2024-01-07T00:27:39;101963.53;;;1.21;100.00
71774;BME280;59607;52.130;5.430;2024-01-07T00:30:07;101954.09;;;1.20;100.00
71774;BME280;59607;52.130;5.430;2024-01-07T00:32:37;101952.19;;;1.23;100.00
71774;BME280;59607;52.130;5.430;2024-01-07T00:35:04;101970.56;;;1.17;100.00
71774;BME280;59607;52.130;5.430;2024-01-07T00:37:42;101958.78;;;1.12;100.00
71774;BME280;59607;52.130;5.430;2024-01-07T00:40:12;101961.00;;;1.19;100.00
71774;BME280;59607;52.130;5.430;2024-01-07T00:42:44;101969.75;;;1.17;100.00
71774;BME280;59607;52.130;5.430;2024-01-07T00:45:11;101973.31;;;1.14;100.00
71774;BME280;59607;52.130;5.430;2024-01-07T00:47:54;101969.69;;;1.18;100.00
71774;BME280;59607;52.130;5.430;2024-01-07T00:50:36;101974.00;;;1.18;100.00
71774;BME280;59607;52.130;5.430;2024-01-07T00:53:20;101968.13;;;1.14;100.00
71774;BME280;59607;52.130;5.430;2024-01-07T00:55:58;101980.84;;;1.19;100.00
71774;BME280;59607;52.130;5.430;2024-01-07T00:58:28;101974.31;;;1.12;100.00
71774;BME280;59607;52.130;5.430;2024-01-07T01:00:57;101980.34;;;1.10;100.00
71774;BME280;59607;52.130;5.430;2024-01-07T01:03:40;101977.91;;;1.07;100.00
71774;BME280;59607;52.130;5.430;2024-01-07T01:06:09;101975.97;;;1.13;100.00
71774;BME280;59607;52.130;5.430;2024-01-07T01:08:39;101981.97;;;1.13;100.00
71774;BME280;59607;52.130;5.430;2024-01-07T01:11:11;101987.22;;;1.12;100.00
71774;BME280;59607;52.130;5.430;2024-01-07T01:13:47;101985.75;;;1.06;100.00
71774;BME280;59607;52.130;5.430;2024-01-07T01:16:13;101986.59;;;1.06;100.00
71774;BME280;59607;52.130;5.430;2024-01-07T01:18:42;101991.75;;;1.06;100.00
71774;BME280;59607;52.130;5.430;2024-01-07T01:21:09;101990.63;;;1.12;100.00
71774;BME280;59607;52.130;5.430;2024-01-07T01:23:35;101997.47;;;1.13;100.00
71774;BME280;59607;52.130;5.430;2024-01-07T01:26:07;101994.97;;;1.12;100.00
71774;BME280;59607;52.130;5.430;2024-01-07T01:28:34;101999.22;;;1.13;100.00
71774;BME280;59607;52.130;5.430;2024-01-07T01:31:03;101997.34;;;1.16;100.00
71774;BME280;59607;52.130;5.430;2024-01-07T01:33:31;102002.22;;;1.22;100.00
71774;BME280;59607;52.130;5.430;2024-01-07T01:35:58;102009.13;;;1.22;100.00
71774;BME280;59607;52.130;5.430;2024-01-07T01:38:30;102005.66;;;1.23;100.00
71774;BME280;59607;52.130;5.430;2024-01-07T01:41:00;102004.03;;;1.20;100.00
71774;BME280;59607;52.130;5.430;2024-01-07T01:43:28;102014.44;;;1.19;100.00
71774;BME280;59607;52.130;5.430;2024-01-07T01:46:02;102020.75;;;1.13;100.00
71774;BME280;59607;52.130;5.430;2024-01-07T01:48:32;102022.25;;;1.17;100.00
71774;BME280;59607;52.130;5.430;2024-01-07T01:51:10;102022.97;;;1.21;100.00
71774;BME280;59607;52.130;5.430;2024-01-07T01:53:51;102024.69;;;1.20;100.00
71774;BME280;59607;52.130;5.430;2024-01-07T01:56:27;102031.63;;;1.20;100.00
71774;BME280;59607;52.130;5.430;2024-01-07T01:58:57;102033.16;;;1.24;100.00
71774;BME280;59607;52.130;5.430;2024-01-07T02:01:42;102036.38;;;1.29;100.00
71774;BME280;59607;52.130;5.430;2024-01-07T02:04:15;102048.81;;;1.21;100.00
71774;BME280;59607;52.130;5.430;2024-01-07T02:06:44;102048.19;;;1.16;100.00
71774;BME280;59607;52.130;5.430;2024-01-07T02:09:14;102052.16;;;1.23;100.00
71774;BME280;59607;52.130;5.430;2024-01-07T02:11:40;102046.72;;;1.10;100.00
71774;BME280;59607;52.130;5.430;2024-01-07T02:14:09;102049.53;;;1.05;100.00
71774;BME280;59607;52.130;5.430;2024-01-07T02:16:38;102059.00;;;1.05;100.00
71774;BME280;59607;52.130;5.430;2024-01-07T02:19:05;102048.66;;;1.05;100.00
71774;BME280;59607;52.130;5.430;2024-01-07T02:21:50;102052.03;;;1.07;100.00
71774;BME280;59607;52.130;5.430;2024-01-07T02:24:22;102061.38;;;1.09;100.00
71774;BME280;59607;52.130;5.430;2024-01-07T02:26:49;102062.09;;;1.13;100.00
71774;BME280;59607;52.130;5.430;2024-01-07T02:29:24;102062.84;;;1.15;100.00
71774;BME280;59607;52.130;5.430;2024-01-07T02:31:50;102064.47;;;1.18;100.00
71774;BME280;59607;52.130;5.430;2024-01-07T02:34:17;102059.34;;;1.16;100.00
71774;BME280;59607;52.130;5.430;2024-01-07T02:36:49;102064.53;;;1.16;100.00
71774;BME280;59607;52.130;5.430;2024-01-07T02:39:16;102067.25;;;1.13;100.00
71774;BME280;59607;52.130;5.430;2024-01-07T02:41:46;102068.22;;;1.10;100.00
71774;BME280;59607;52.130;5.430;2024-01-07T02:44:13;102072.56;;;1.10;100.00
71774;BME280;59607;52.130;5.430;2024-01-07T02:46:39;102070.66;;;1.14;100.00
71774;BME280;59607;52.130;5.430;2024-01-07T02:49:06;102067.19;;;1.15;100.00
71774;BME280;59607;52.130;5.430;2024-01-07T02:51:38;102071.38;;;1.17;100.00
71774;BME280;59607;52.130;5.430;2024-01-07T02:54:04;102072.41;;;1.13;100.00
71774;BME280;59607;52.130;5.430;2024-01-07T02:56:34;102069.63;;;1.18;100.00
71774;BME280;59607;52.130;5.430;2024-01-07T02:59:01;102073.06;;;1.18;100.00
71774;BME280;59607;52.130;5.430;2024-01-07T03:01:27;102073.81;;;1.20;100.00
71774;BME280;59607;52.130;5.430;2024-01-07T03:03:54;102075.50;;;1.21;100.00
71774;BME280;59607;52.130;5.430;2024-01-07T03:06:30;102082.56;;;1.18;100.00
71774;BME280;59607;52.130;5.430;2024-01-07T03:08:59;102075.97;;;1.10;100.00
71774;BME280;59607;52.130;5.430;2024-01-07T03:11:29;102090.72;;;1.08;100.00
71774;BME280;59607;52.130;5.430;2024-01-07T03:13:56;102093.69;;;0.99;100.00
71774;BME280;59607;52.130;5.430;2024-01-07T03:16:25;102091.25;;;0.96;100.00
71774;BME280;59607;52.130;5.430;2024-01-07T03:18:55;102094.69;;;0.96;100.00
71774;BME280;59607;52.130;5.430;2024-01-07T03:21:23;102095.66;;;0.94;100.00
71774;BME280;59607;52.130;5.430;2024-01-07T03:24:12;102103.22;;;0.98;100.00
71774;BME280;59607;52.130;5.430;2024-01-07T03:26:42;102104.81;;;1.01;100.00
71774;BME280;59607;52.130;5.430;2024-01-07T03:29:09;102108.16;;;1.03;100.00
71774;BME280;59607;52.130;5.430;2024-01-07T03:31:41;102099.06;;;0.94;100.00
71774;BME280;59607;52.130;5.430;2024-01-07T03:34:08;102114.56;;;0.94;100.00
71774;BME280;59607;52.130;5.430;2024-01-07T03:36:37;102109.19;;;0.99;100.00
71774;BME280;59607;52.130;5.430;2024-01-07T03:39:07;102105.09;;;0.95;100.00
71774;BME280;59607;52.130;5.430;2024-01-07T03:41:33;102103.41;;;0.94;100.00
71774;BME280;59607;52.130;5.430;2024-01-07T03:44:03;102111.44;;;0.88;100.00
71774;BME280;59607;52.130;5.430;2024-01-07T03:46:33;102116.59;;;0.88;100.00
71774;BME280;59607;52.130;5.430;2024-01-07T03:49:03;102118.41;;;0.85;100.00
71774;BME280;59607;52.130;5.430;2024-01-07T03:51:33;102116.72;;;0.84;100.00
71774;BME280;59607;52.130;5.430;2024-01-07T03:53:59;102125.25;;;0.86;100.00
71774;BME280;59607;52.130;5.430;2024-01-07T03:56:26;102128.47;;;0.92;100.00
71774;BME280;59607;52.130;5.430;2024-01-07T03:58:56;102126.16;;;0.85;100.00
71774;BME280;59607;52.130;5.430;2024-01-07T04:01:22;102135.50;;;0.88;100.00
71774;BME280;59607;52.130;5.430;2024-01-07T04:03:49;102129.53;;;0.88;100.00
71774;BME280;59607;52.130;5.430;2024-01-07T04:06:21;102137.31;;;0.86;100.00
71774;BME280;59607;52.130;5.430;2024-01-07T04:08:48;102135.78;;;0.82;100.00
71774;BME280;59607;52.130;5.430;2024-01-07T04:11:24;102143.41;;;0.85;100.00
71774;BME280;59607;52.130;5.430;2024-01-07T04:13:51;102142.22;;;0.92;100.00
71774;BME280;59607;52.130;5.430;2024-01-07T04:16:21;102135.25;;;0.94;100.00
71774;BME280;59607;52.130;5.430;2024-01-07T04:18:47;102150.28;;;0.84;100.00
71774;BME280;59607;52.130;5.430;2024-01-07T04:21:25;102157.41;;;0.79;100.00
71774;BME280;59607;52.130;5.430;2024-01-07T04:23:54;102156.44;;;0.82;100.00
71774;BME280;59607;52.130;5.430;2024-01-07T04:26:22;102153.78;;;0.83;100.00
71774;BME280;59607;52.130;5.430;2024-01-07T04:28:57;102167.50;;;0.85;100.00
71774;BME280;59607;52.130;5.430;2024-01-07T04:31:23;102164.63;;;0.92;100.00
71774;BME280;59607;52.130;5.430;2024-01-07T04:33:52;102160.31;;;0.92;100.00
71774;BME280;59607;52.130;5.430;2024-01-07T04:36:21;102174.78;;;0.96;100.00
71774;BME280;59607;52.130;5.430;2024-01-07T04:38:48;102175.88;;;0.91;100.00
71774;BME280;59607;52.130;5.430;2024-01-07T04:41:17;102176.69;;;0.91;100.00
71774;BME280;59607;52.130;5.430;2024-01-07T04:43:46;102180.13;;;0.92;100.00
71774;BME280;59607;52.130;5.430;2024-01-07T04:46:13;102177.75;;;0.87;100.00
71774;BME280;59607;52.130;5.430;2024-01-07T04:48:54;102184.44;;;0.91;100.00
71774;BME280;59607;52.130;5.430;2024-01-07T04:51:23;102188.53;;;0.97;100.00
71774;BME280;59607;52.130;5.430;2024-01-07T04:53:52;102195.63;;;0.92;100.00
71774;BME280;59607;52.130;5.430;2024-01-07T04:56:21;102194.03;;;0.89;100.00
71774;BME280;59607;52.130;5.430;2024-01-07T04:58:51;102200.81;;;0.92;100.00
71774;BME280;59607;52.130;5.430;2024-01-07T05:01:17;102211.00;;;0.95;100.00
71774;BME280;59607;52.130;5.430;2024-01-07T05:03:50;102208.34;;;0.96;100.00
71774;BME280;59607;52.130;5.430;2024-01-07T05:06:21;102204.31;;;0.91;100.00
71774;BME280;59607;52.130;5.430;2024-01-07T05:08:50;102217.16;;;0.92;100.00
71774;BME280;59607;52.130;5.430;2024-01-07T05:11:20;102219.81;;;0.91;100.00
71774;BME280;59607;52.130;5.430;2024-01-07T05:13:46;102219.66;;;0.94;100.00
71774;BME280;59607;52.130;5.430;2024-01-07T05:16:23;102217.97;;;0.93;100.00
71774;BME280;59607;52.130;5.430;2024-01-07T05:18:49;102217.97;;;0.93;100.00
71774;BME280;59607;52.130;5.430;2024-01-07T05:21:19;102228.25;;;0.94;100.00
71774;BME280;59607;52.130;5.430;2024-01-07T05:23:46;102228.50;;;0.88;100.00
71774;BME280;59607;52.130;5.430;2024-01-07T05:26:12;102226.84;;;0.87;100.00
71774;BME280;59607;52.130;5.430;2024-01-07T05:28:38;102240.59;;;0.88;100.00
71774;BME280;59607;52.130;5.430;2024-01-07T05:31:18;102236.91;;;0.93;100.00
71774;BME280;59607;52.130;5.430;2024-01-07T05:33:51;102229.69;;;1.02;100.00
71774;BME280;59607;52.130;5.430;2024-01-07T05:36:18;102229.81;;;0.98;100.00
71774;BME280;59607;52.130;5.430;2024-01-07T05:38:47;102240.13;;;0.98;100.00
71774;BME280;59607;52.130;5.430;2024-01-07T05:41:22;102246.19;;;0.97;100.00
71774;BME280;59607;52.130;5.430;2024-01-07T05:43:51;102243.00;;;0.92;100.00
71774;BME280;59607;52.130;5.430;2024-01-07T05:46:18;102254.00;;;0.96;100.00
71774;BME280;59607;52.130;5.430;2024-01-07T05:48:46;102246.25;;;0.96;100.00
71774;BME280;59607;52.130;5.430;2024-01-07T05:51:16;102259.03;;;0.99;100.00
71774;BME280;59607;52.130;5.430;2024-01-07T05:53:44;102267.84;;;0.95;100.00
71774;BME280;59607;52.130;5.430;2024-01-07T05:56:10;102274.69;;;0.96;100.00
71774;BME280;59607;52.130;5.430;2024-01-07T05:58:40;102269.63;;;0.93;100.00
71774;BME280;59607;52.130;5.430;2024-01-07T06:01:09;102273.84;;;0.95;100.00
71774;BME280;59607;52.130;5.430;2024-01-07T06:03:36;102275.41;;;1.00;100.00
71774;BME280;59607;52.130;5.430;2024-01-07T06:06:12;102282.28;;;0.99;100.00
71774;BME280;59607;52.130;5.430;2024-01-07T06:08:39;102282.44;;;0.96;100.00
71774;BME280;59607;52.130;5.430;2024-01-07T06:11:09;102287.78;;;0.91;100.00
71774;BME280;59607;52.130;5.430;2024-01-07T06:13:40;102291.22;;;0.92;100.00
71774;BME280;59607;52.130;5.430;2024-01-07T06:16:07;102290.56;;;0.86;100.00
71774;BME280;59607;52.130;5.430;2024-01-07T06:18:39;102293.94;;;0.89;100.00
71774;BME280;59607;52.130;5.430;2024-01-07T06:21:06;102298.13;;;0.91;100.00
71774;BME280;59607;52.130;5.430;2024-01-07T06:23:35;102305.19;;;0.88;100.00
71774;BME280;59607;52.130;5.430;2024-01-07T06:26:05;102309.31;;;0.92;100.00
71774;BME280;59607;52.130;5.430;2024-01-07T06:28:32;102311.88;;;0.92;100.00
71774;BME280;59607;52.130;5.430;2024-01-07T06:31:04;102321.50;;;0.88;100.00
71774;BME280;59607;52.130;5.430;2024-01-07T06:33:31;102322.41;;;0.87;100.00
71774;BME280;59607;52.130;5.430;2024-01-07T06:36:00;102313.94;;;0.83;100.00
71774;BME280;59607;52.130;5.430;2024-01-07T06:38:32;102321.50;;;0.88;100.00
71774;BME280;59607;52.130;5.430;2024-01-07T06:41:06;102329.19;;;0.90;100.00
71774;BME280;59607;52.130;5.430;2024-01-07T06:43:35;102326.53;;;0.91;100.00
71774;BME280;59607;52.130;5.430;2024-01-07T06:46:02;102336.06;;;0.91;100.00
71774;BME280;59607;52.130;5.430;2024-01-07T06:48:43;102339.53;;;0.90;100.00
71774;BME280;59607;52.130;5.430;2024-01-07T06:51:17;102343.13;;;0.85;100.00
71774;BME280;59607;52.130;5.430;2024-01-07T06:53:43;102343.88;;;0.89;100.00
71774;BME280;59607;52.130;5.430;2024-01-07T06:56:10;102346.53;;;0.86;100.00
71774;BME280;59607;52.130;5.430;2024-01-07T06:58:57;102350.41;;;0.76;100.00
71774;BME280;59607;52.130;5.430;2024-01-07T07:01:26;102361.66;;;0.75;100.00
71774;BME280;59607;52.130;5.430;2024-01-07T07:03:52;102361.59;;;0.76;100.00
71774;BME280;59607;52.130;5.430;2024-01-07T07:06:22;102366.63;;;0.79;100.00
71774;BME280;59607;52.130;5.430;2024-01-07T07:08:51;102370.03;;;0.80;100.00
71774;BME280;59607;52.130;5.430;2024-01-07T07:11:24;102374.38;;;0.79;100.00
71774;BME280;59607;52.130;5.430;2024-01-07T07:13:58;102380.31;;;0.81;100.00
71774;BME280;59607;52.130;5.430;2024-01-07T07:16:27;102380.38;;;0.80;100.00
71774;BME280;59607;52.130;5.430;2024-01-07T07:18:56;102380.38;;;0.80;100.00
71774;BME280;59607;52.130;5.430;2024-01-07T07:21:22;102390.88;;;0.75;100.00
71774;BME280;59607;52.130;5.430;2024-01-07T07:23:57;102385.91;;;0.70;100.00
71774;BME280;59607;52.130;5.430;2024-01-07T07:26:24;102397.69;;;0.78;100.00
71774;BME280;59607;52.130;5.430;2024-01-07T07:28:58;102399.84;;;0.66;100.00
71774;BME280;59607;52.130;5.430;2024-01-07T07:31:24;102394.00;;;0.61;100.00
71774;BME280;59607;52.130;5.430;2024-01-07T07:33:51;102406.75;;;0.66;100.00
71774;BME280;59607;52.130;5.430;2024-01-07T07:36:19;102403.97;;;0.70;100.00
71774;BME280;59607;52.130;5.430;2024-01-07T07:38:48;102405.66;;;0.71;100.00
71774;BME280;59607;52.130;5.430;2024-01-07T07:41:14;102416.16;;;0.67;100.00
71774;BME280;59607;52.130;5.430;2024-01-07T07:43:47;102405.34;;;0.57;100.00
71774;BME280;59607;52.130;5.430;2024-01-07T07:46:13;102419.94;;;0.58;100.00
71774;BME280;59607;52.130;5.430;2024-01-07T07:48:40;102427.75;;;0.56;100.00
71774;BME280;59607;52.130;5.430;2024-01-07T07:51:11;102424.25;;;0.57;100.00
71774;BME280;59607;52.130;5.430;2024-01-07T07:53:38;102442.44;;;0.54;100.00
71774;BME280;59607;52.130;5.430;2024-01-07T07:56:17;102442.50;;;0.53;100.00
71774;BME280;59607;52.130;5.430;2024-01-07T07:58:45;102455.41;;;0.53;100.00
71774;BME280;59607;52.130;5.430;2024-01-07T08:01:17;102446.06;;;0.50;100.00
71774;BME280;59607;52.130;5.430;2024-01-07T08:03:45;102453.91;;;0.47;100.00
71774;BME280;59607;52.130;5.430;2024-01-07T08:06:20;102468.44;;;0.49;100.00
71774;BME280;59607;52.130;5.430;2024-01-07T08:08:46;102462.47;;;0.47;100.00
71774;BME280;59607;52.130;5.430;2024-01-07T08:11:19;102471.06;;;0.48;100.00
71774;BME280;59607;52.130;5.430;2024-01-07T08:13:47;102477.78;;;0.52;100.00
71774;BME280;59607;52.130;5.430;2024-01-07T08:16:14;102475.91;;;0.57;100.00
71774;BME280;59607;52.130;5.430;2024-01-07T08:18:42;102482.84;;;0.55;100.00
71774;BME280;59607;52.130;5.430;2024-01-07T08:21:13;102475.91;;;0.57;100.00
71774;BME280;59607;52.130;5.430;2024-01-07T08:23:40;102482.09;;;0.53;100.00
71774;BME280;59607;52.130;5.430;2024-01-07T08:26:06;102487.97;;;0.57;100.00
71774;BME280;59607;52.130;5.430;2024-01-07T08:28:32;102488.88;;;0.56;100.00
71774;BME280;59607;52.130;5.430;2024-01-07T08:30:59;102492.34;;;0.55;100.00
71774;BME280;59607;52.130;5.430;2024-01-07T08:33:28;102496.78;;;0.51;100.00
71774;BME280;59607;52.130;5.430;2024-01-07T08:36:01;102492.63;;;0.47;100.00
71774;BME280;59607;52.130;5.430;2024-01-07T08:38:31;102503.84;;;0.46;100.00
71774;BME280;59607;52.130;5.430;2024-01-07T08:41:21;102508.94;;;0.47;100.00
71774;BME280;59607;52.130;5.430;2024-01-07T08:43:47;102503.66;;;0.51;100.00
71774;BME280;59607;52.130;5.430;2024-01-07T08:46:24;102512.50;;;0.45;100.00
71774;BME280;59607;52.130;5.430;2024-01-07T08:48:51;102517.59;;;0.46;100.00
71774;BME280;59607;52.130;5.430;2024-01-07T08:51:20;102515.13;;;0.43;100.00
71774;BME280;59607;52.130;5.430;2024-01-07T08:53:47;102524.66;;;0.41;100.00
71774;BME280;59607;52.130;5.430;2024-01-07T08:56:15;102531.66;;;0.38;100.00
71774;BME280;59607;52.130;5.430;2024-01-07T08:58:42;102541.88;;;0.41;100.00
71774;BME280;59607;52.130;5.430;2024-01-07T09:01:14;102536.66;;;0.42;100.00
71774;BME280;59607;52.130;5.430;2024-01-07T09:03:41;102532.34;;;0.43;100.00
71774;BME280;59607;52.130;5.430;2024-01-07T09:06:16;102557.31;;;0.42;100.00
71774;BME280;59607;52.130;5.430;2024-01-07T09:08:42;102552.16;;;0.42;100.00
71774;BME280;59607;52.130;5.430;2024-01-07T09:11:09;102550.19;;;0.49;100.00
71774;BME280;59607;52.130;5.430;2024-01-07T09:13:41;102556.16;;;0.51;100.00
71774;BME280;59607;52.130;5.430;2024-01-07T09:16:10;102556.09;;;0.53;100.00
71774;BME280;59607;52.130;5.430;2024-01-07T09:18:43;102562.13;;;0.53;100.00
71774;BME280;59607;52.130;5.430;2024-01-07T09:21:11;102568.91;;;0.56;100.00
71774;BME280;59607;52.130;5.430;2024-01-07T09:23:41;102569.91;;;0.52;100.00
71774;BME280;59607;52.130;5.430;2024-01-07T09:26:10;102580.34;;;0.48;100.00
71774;BME280;59607;52.130;5.430;2024-01-07T09:28:40;102588.72;;;0.55;100.00
71774;BME280;59607;52.130;5.430;2024-01-07T09:31:09;102587.50;;;0.66;100.00
71774;BME280;59607;52.130;5.430;2024-01-07T09:33:35;102590.09;;;0.66;100.00
71774;BME280;59607;52.130;5.430;2024-01-07T09:36:03;102592.78;;;0.63;100.00
71774;BME280;59607;52.130;5.430;2024-01-07T09:38:53;102598.06;;;0.59;100.00
71774;BME280;59607;52.130;5.430;2024-01-07T09:41:20;102598.97;;;0.58;100.00
71774;BME280;59607;52.130;5.430;2024-01-07T09:43:47;102608.50;;;0.56;100.00
71774;BME280;59607;52.130;5.430;2024-01-07T09:46:19;102606.13;;;0.50;100.00
71774;BME280;59607;52.130;5.430;2024-01-07T09:48:46;102614.69;;;0.51;100.00
71774;BME280;59607;52.130;5.430;2024-01-07T09:51:22;102610.28;;;0.54;100.00
71774;BME280;59607;52.130;5.430;2024-01-07T09:53:54;102623.25;;;0.53;100.00
71774;BME280;59607;52.130;5.430;2024-01-07T09:56:25;102624.91;;;0.54;100.00
71774;BME280;59607;52.130;5.430;2024-01-07T09:58:53;102624.78;;;0.58;100.00
71774;BME280;59607;52.130;5.430;2024-01-07T10:01:36;102622.03;;;0.63;100.00
71774;BME280;59607;52.130;5.430;2024-01-07T10:04:08;102619.50;;;0.61;100.00
71774;BME280;59607;52.130;5.430;2024-01-07T10:06:35;102629.25;;;0.53;100.00
71774;BME280;59607;52.130;5.430;2024-01-07T10:09:01;102613.06;;;0.48;100.00
71774;BME280;59607;52.130;5.430;2024-01-07T10:11:34;102629.34;;;0.50;100.00
71774;BME280;59607;52.130;5.430;2024-01-07T10:14:01;102626.47;;;0.59;100.00
71774;BME280;59607;52.130;5.430;2024-01-07T10:16:44;102629.72;;;0.65;100.00
71774;BME280;59607;52.130;5.430;2024-01-07T10:19:19;102642.16;;;0.53;100.00
71774;BME280;59607;52.130;5.430;2024-01-07T10:21:46;102636.94;;;0.55;100.00
71774;BME280;59607;52.130;5.430;2024-01-07T10:24:13;102626.56;;;0.56;100.00
71774;BME280;59607;52.130;5.430;2024-01-07T10:26:42;102636.00;;;0.57;100.00
71774;BME280;59607;52.130;5.430;2024-01-07T10:29:09;102649.53;;;0.64;100.00
71774;BME280;59607;52.130;5.430;2024-01-07T10:31:41;102649.50;;;0.66;100.00
71774;BME280;59607;52.130;5.430;2024-01-07T10:34:13;102668.91;;;0.78;100.00
71774;BME280;59607;52.130;5.430;2024-01-07T10:36:43;102638.66;;;0.80;100.00
71774;BME280;59607;52.130;5.430;2024-01-07T10:39:14;102670.94;;;0.68;100.00
71774;BME280;59607;52.130;5.430;2024-01-07T10:41:56;102671.00;;;0.66;100.00
71774;BME280;59607;52.130;5.430;2024-01-07T10:44:32;102674.94;;;0.77;100.00
71774;BME280;59607;52.130;5.430;2024-01-07T10:46:59;102680.66;;;0.86;100.00
71774;BME280;59607;52.130;5.430;2024-01-07T10:49:27;102681.56;;;0.85;100.00
71774;BME280;59607;52.130;5.430;2024-01-07T10:54:29;102694.88;;;0.73;99.94
71774;BME280;59607;52.130;5.430;2024-01-07T11:00:06;102669.66;;;0.80;100.00
71774;BME280;59607;52.130;5.430;2024-01-07T11:02:39;102674.78;;;0.81;100.00
71774;BME280;59607;52.130;5.430;2024-01-07T11:08:41;102673.00;;;0.83;100.00
71774;BME280;59607;52.130;5.430;2024-01-07T11:11:16;102686.88;;;0.81;99.84
71774;BME280;59607;52.130;5.430;2024-01-07T11:13:49;102681.81;;;0.78;98.95
71774;BME280;59607;52.130;5.430;2024-01-07T11:19:13;102684.59;;;0.97;98.15
71774;BME280;59607;52.130;5.430;2024-01-07T11:21:44;102678.81;;;0.90;96.90
71774;BME280;59607;52.130;5.430;2024-01-07T11:24:37;102685.53;;;0.94;97.18
71774;BME280;59607;52.130;5.430;2024-01-07T11:27:04;102680.31;;;0.96;97.08
71774;BME280;59607;52.130;5.430;2024-01-07T11:29:42;102675.66;;;1.06;95.42
71774;BME280;59607;52.130;5.430;2024-01-07T11:32:12;102682.09;;;1.19;96.88
71774;BME280;59607;52.130;5.430;2024-01-07T11:34:42;102682.84;;;1.23;94.36
71774;BME280;59607;52.130;5.430;2024-01-07T11:37:11;102683.66;;;1.23;94.83
71774;BME280;59607;52.130;5.430;2024-01-07T11:39:53;102679.63;;;1.16;93.40
71774;BME280;59607;52.130;5.430;2024-01-07T11:42:36;102694.66;;;1.05;92.17
71774;BME280;59607;52.130;5.430;2024-01-07T11:45:09;102690.97;;;0.86;91.88
71774;BME280;59607;52.130;5.430;2024-01-07T11:47:37;102681.72;;;0.81;93.00
71774;BME280;59607;52.130;5.430;2024-01-07T11:50:06;102684.34;;;0.79;94.46
71774;BME280;59607;52.130;5.430;2024-01-07T11:52:35;102686.06;;;0.79;95.87
71774;BME280;59607;52.130;5.430;2024-01-07T11:55:05;102682.59;;;0.80;95.54
71774;BME280;59607;52.130;5.430;2024-01-07T11:57:34;102685.13;;;0.81;95.00
71774;BME280;59607;52.130;5.430;2024-01-07T12:00:01;102686.59;;;0.89;95.87
71774;BME280;59607;52.130;5.430;2024-01-07T12:02:37;102681.34;;;0.92;94.14
71774;BME280;59607;52.130;5.430;2024-01-07T12:05:04;102685.66;;;0.91;92.84
71774;BME280;59607;52.130;5.430;2024-01-07T12:07:30;102681.34;;;0.92;92.53
71774;BME280;59607;52.130;5.430;2024-01-07T12:09:57;102683.88;;;0.93;91.38
71774;BME280;59607;52.130;5.430;2024-01-07T12:12:27;102681.13;;;0.98;94.06
71774;BME280;59607;52.130;5.430;2024-01-07T12:14:55;102674.47;;;1.16;92.01
71774;BME280;59607;52.130;5.430;2024-01-07T12:17:22;102672.56;;;1.21;91.77
71774;BME280;59607;52.130;5.430;2024-01-07T12:19:51;102685.06;;;1.08;91.43
71774;BME280;59607;52.130;5.430;2024-01-07T12:22:18;102692.88;;;1.07;92.60
71774;BME280;59607;52.130;5.430;2024-01-07T12:25:05;102691.81;;;1.13;91.77
71774;BME280;59607;52.130;5.430;2024-01-07T12:27:33;102691.22;;;1.04;91.50
71774;BME280;59607;52.130;5.430;2024-01-07T12:30:00;102699.47;;;0.90;90.58
71774;BME280;59607;52.130;5.430;2024-01-07T12:32:38;102709.84;;;0.89;90.56
71774;BME280;59607;52.130;5.430;2024-01-07T12:35:08;102701.31;;;0.86;89.64
71774;BME280;59607;52.130;5.430;2024-01-07T12:37:38;102715.88;;;0.89;89.28
71774;BME280;59607;52.130;5.430;2024-01-07T12:40:05;102711.66;;;0.86;89.47
71774;BME280;59607;52.130;5.430;2024-01-07T12:42:50;102724.41;;;0.91;87.15
71774;BME280;59607;52.130;5.430;2024-01-07T12:45:23;102717.72;;;0.85;88.87
71774;BME280;59607;52.130;5.430;2024-01-07T12:47:50;102713.19;;;0.92;87.82
71774;BME280;59607;52.130;5.430;2024-01-07T12:50:27;102720.63;;;1.02;89.00
71774;BME280;59607;52.130;5.430;2024-01-07T12:53:02;102722.81;;;1.13;88.29
71774;BME280;59607;52.130;5.430;2024-01-07T12:55:28;102719.56;;;1.07;86.55
71774;BME280;59607;52.130;5.430;2024-01-07T12:57:55;102722.88;;;1.11;86.34
71774;BME280;59607;52.130;5.430;2024-01-07T13:00:26;102726.53;;;1.05;88.25
71774;BME280;59607;52.130;5.430;2024-01-07T13:02:58;102732.47;;;1.07;85.25
71774;BME280;59607;52.130;5.430;2024-01-07T13:05:30;102720.72;;;0.98;86.04
71774;BME280;59607;52.130;5.430;2024-01-07T13:08:07;102737.63;;;1.07;86.22
71774;BME280;59607;52.130;5.430;2024-01-07T13:10:39;102730.41;;;1.17;85.20
71774;BME280;59607;52.130;5.430;2024-01-07T13:13:07;102728.59;;;1.45;86.45
71774;BME280;59607;52.130;5.430;2024-01-07T13:15:43;102727.38;;;1.55;85.65
71774;BME280;59607;52.130;5.430;2024-01-07T13:18:10;102728.31;;;1.53;86.27
71774;BME280;59607;52.130;5.430;2024-01-07T13:20:44;102728.72;;;1.42;84.56